sensor_id;sensor_type;location;lat;lon;timestamp;temperature;humidity
612;DHT22;293;53.888;11.464;2023-03-14T00:02:26;11.20;99.90
612;DHT22;293;53.888;11.464;2023-03-14T00:04:54;11.10;99.90
612;DHT22;293;53.888;11.464;2023-03-14T00:07:23;11.10;99.90
612;DHT22;293;53.888;11.464;2023-03-14T00:09:51;11.10;99.90
612;DHT22;293;53.888;11.464;2023-03-14T00:12:18;11.00;99.90
612;DHT22;293;53.888;11.464;2023-03-14T00:14:44;11.00;99.90
612;DHT22;293;53.888;11.464;2023-03-14T00:17:11;11.00;99.90
612;DHT22;293;53.888;11.464;2023-03-14T00:19:39;11.00;99.90
612;DHT22;293;53.888;11.464;2023-03-14T00:22:06;11.00;99.90
612;DHT22;293;53.888;11.464;2023-03-14T00:24:34;11.00;99.90
612;DHT22;293;53.888;11.464;2023-03-14T00:27:01;11.10;99.90
612;DHT22;293;53.888;11.464;2023-03-14T00:29:28;11.10;99.90
612;DHT22;293;53.888;11.464;2023-03-14T00:31:55;11.10;99.90
612;DHT22;293;53.888;11.464;2023-03-14T00:34:22;11.10;99.90
612;DHT22;293;53.888;11.464;2023-03-14T00:36:49;11.10;99.90
612;DHT22;293;53.888;11.464;2023-03-14T00:39:16;11.10;99.90
612;DHT22;293;53.888;11.464;2023-03-14T00:41:44;11.10;99.90
612;DHT22;293;53.888;11.464;2023-03-14T00:44:11;11.10;99.90
612;DHT22;293;53.888;11.464;2023-03-14T00:46:38;11.20;99.90
612;DHT22;293;53.888;11.464;2023-03-14T00:49:05;11.20;99.90
612;DHT22;293;53.888;11.464;2023-03-14T00:51:32;11.20;99.90
612;DHT22;293;53.888;11.464;2023-03-14T00:53:59;11.30;99.90
612;DHT22;293;53.888;11.464;2023-03-14T00:56:26;11.40;99.90
612;DHT22;293;53.888;11.464;2023-03-14T00:58:55;11.50;99.90
612;DHT22;293;53.888;11.464;2023-03-14T01:01:23;11.50;99.90
612;DHT22;293;53.888;11.464;2023-03-14T01:03:51;11.50;99.90
612;DHT22;293;53.888;11.464;2023-03-14T01:06:20;11.60;99.90
612;DHT22;293;53.888;11.464;2023-03-14T01:08:47;11.60;99.90
612;DHT22;293;53.888;11.464;2023-03-14T01:11:17;11.60;99.90
612;DHT22;293;53.888;11.464;2023-03-14T01:13:44;11.50;99.90
612;DHT22;293;53.888;11.464;2023-03-14T01:16:13;11.50;99.90
612;DHT22;293;53.888;11.464;2023-03-14T01:18:41;11.40;99.90
612;DHT22;293;53.888;11.464;2023-03-14T01:21:12;11.40;99.90
612;DHT22;293;53.888;11.464;2023-03-14T01:23:39;11.30;99.90
612;DHT22;293;53.888;11.464;2023-03-14T01:26:08;11.30;99.90
612;DHT22;293;53.888;11.464;2023-03-14T01:28:35;11.20;99.90
612;DHT22;293;53.888;11.464;2023-03-14T01:31:03;11.20;99.90
612;DHT22;293;53.888;11.464;2023-03-14T01:33:31;11.20;99.90
612;DHT22;293;53.888;11.464;2023-03-14T01:35:59;11.10;99.90
612;DHT22;293;53.888;11.464;2023-03-14T01:38:27;11.10;99.90
612;DHT22;293;53.888;11.464;2023-03-14T01:40:54;11.10;99.90
612;DHT22;293;53.888;11.464;2023-03-14T01:43:22;11.10;99.90
612;DHT22;293;53.888;11.464;2023-03-14T01:48:59;11.10;99.90
612;DHT22;293;53.888;11.464;2023-03-14T01:51:32;11.10;99.90
612;DHT22;293;53.888;11.464;2023-03-14T01:54:05;11.10;99.90
612;DHT22;293;53.888;11.464;2023-03-14T01:56:34;11.00;99.90
612;DHT22;293;53.888;11.464;2023-03-14T01:59:03;10.90;99.90
612;DHT22;293;53.888;11.464;2023-03-14T02:01:32;10.90;99.90
612;DHT22;293;53.888;11.464;2023-03-14T02:04:02;10.90;99.90
612;DHT22;293;53.888;11.464;2023-03-14T02:06:35;10.90;99.90
612;DHT22;293;53.888;11.464;2023-03-14T02:09:04;10.90;99.90
612;DHT22;293;53.888;11.464;2023-03-14T02:11:31;10.90;99.90
612;DHT22;293;53.888;11.464;2023-03-14T02:13:59;11.00;99.90
612;DHT22;293;53.888;11.464;2023-03-14T02:16:28;11.00;99.90
612;DHT22;293;53.888;11.464;2023-03-14T02:18:55;11.00;99.90
612;DHT22;293;53.888;11.464;2023-03-14T02:21:30;11.00;99.90
612;DHT22;293;53.888;11.464;2023-03-14T02:24:08;11.00;99.90
612;DHT22;293;53.888;11.464;2023-03-14T02:26:39;11.00;99.90
612;DHT22;293;53.888;11.464;2023-03-14T02:29:09;10.90;99.90
612;DHT22;293;53.888;11.464;2023-03-14T02:31:37;10.90;99.90
612;DHT22;293;53.888;11.464;2023-03-14T02:34:04;10.90;99.90
612;DHT22;293;53.888;11.464;2023-03-14T02:36:31;11.00;99.90
612;DHT22;293;53.888;11.464;2023-03-14T02:39:05;11.10;99.90
612;DHT22;293;53.888;11.464;2023-03-14T02:41:34;11.10;99.90
612;DHT22;293;53.888;11.464;2023-03-14T02:44:01;11.10;99.90
612;DHT22;293;53.888;11.464;2023-03-14T02:46:29;11.20;99.90
612;DHT22;293;53.888;11.464;2023-03-14T02:48:59;11.30;99.90
612;DHT22;293;53.888;11.464;2023-03-14T02:51:27;11.30;99.90
612;DHT22;293;53.888;11.464;2023-03-14T02:53:55;11.30;99.90
612;DHT22;293;53.888;11.464;2023-03-14T02:56:22;11.40;99.90
612;DHT22;293;53.888;11.464;2023-03-14T02:58:49;11.40;99.90
612;DHT22;293;53.888;11.464;2023-03-14T03:01:16;11.40;99.90
612;DHT22;293;53.888;11.464;2023-03-14T03:03:44;11.40;99.90
612;DHT22;293;53.888;11.464;2023-03-14T03:06:11;11.50;99.90
612;DHT22;293;53.888;11.464;2023-03-14T03:08:38;11.50;99.90
612;DHT22;293;53.888;11.464;2023-03-14T03:11:06;11.50;99.90
612;DHT22;293;53.888;11.464;2023-03-14T03:13:34;11.50;99.90
612;DHT22;293;53.888;11.464;2023-03-14T03:16:01;11.50;99.90
612;DHT22;293;53.888;11.464;2023-03-14T03:18:28;11.50;99.90
612;DHT22;293;53.888;11.464;2023-03-14T03:20:59;11.50;99.90
612;DHT22;293;53.888;11.464;2023-03-14T03:23:27;11.50;99.90
612;DHT22;293;53.888;11.464;2023-03-14T03:25:54;11.50;99.90
612;DHT22;293;53.888;11.464;2023-03-14T03:28:21;11.50;99.90
612;DHT22;293;53.888;11.464;2023-03-14T03:30:48;11.50;99.90
612;DHT22;293;53.888;11.464;2023-03-14T03:33:15;11.50;99.90
612;DHT22;293;53.888;11.464;2023-03-14T03:35:44;11.50;99.90
612;DHT22;293;53.888;11.464;2023-03-14T03:38:13;11.50;99.90
612;DHT22;293;53.888;11.464;2023-03-14T03:40:40;11.50;99.90
612;DHT22;293;53.888;11.464;2023-03-14T03:43:07;11.50;99.90
612;DHT22;293;53.888;11.464;2023-03-14T03:45:34;11.50;99.90
612;DHT22;293;53.888;11.464;2023-03-14T03:48:01;11.50;99.90
612;DHT22;293;53.888;11.464;2023-03-14T03:50:28;11.50;99.90
612;DHT22;293;53.888;11.464;2023-03-14T03:52:55;11.40;99.90
612;DHT22;293;53.888;11.464;2023-03-14T03:55:23;11.40;99.90
612;DHT22;293;53.888;11.464;2023-03-14T03:57:51;11.40;99.90
612;DHT22;293;53.888;11.464;2023-03-14T04:00:18;11.30;99.90
612;DHT22;293;53.888;11.464;2023-03-14T04:02:46;11.30;99.90
612;DHT22;293;53.888;11.464;2023-03-14T04:05:13;11.30;99.90
612;DHT22;293;53.888;11.464;2023-03-14T04:07:40;11.10;99.90
612;DHT22;293;53.888;11.464;2023-03-14T04:10:08;11.10;99.90
612;DHT22;293;53.888;11.464;2023-03-14T04:12:36;11.10;99.90
612;DHT22;293;53.888;11.464;2023-03-14T04:15:04;11.00;99.90
612;DHT22;293;53.888;11.464;2023-03-14T04:17:31;11.00;99.90
612;DHT22;293;53.888;11.464;2023-03-14T04:19:58;10.90;99.90
612;DHT22;293;53.888;11.464;2023-03-14T04:22:25;10.80;99.90
612;DHT22;293;53.888;11.464;2023-03-14T04:24:52;10.80;99.90
612;DHT22;293;53.888;11.464;2023-03-14T04:27:19;10.70;99.90
612;DHT22;293;53.888;11.464;2023-03-14T04:29:48;10.70;99.90
612;DHT22;293;53.888;11.464;2023-03-14T04:32:14;10.80;99.90
612;DHT22;293;53.888;11.464;2023-03-14T04:34:42;10.80;99.90
612;DHT22;293;53.888;11.464;2023-03-14T04:37:09;10.80;99.90
612;DHT22;293;53.888;11.464;2023-03-14T04:39:36;10.80;99.90
612;DHT22;293;53.888;11.464;2023-03-14T04:42:03;10.80;99.90
612;DHT22;293;53.888;11.464;2023-03-14T04:44:30;10.90;99.90
612;DHT22;293;53.888;11.464;2023-03-14T04:46:58;10.90;99.90
612;DHT22;293;53.888;11.464;2023-03-14T04:49:25;11.00;99.90
612;DHT22;293;53.888;11.464;2023-03-14T04:51:52;11.00;99.90
612;DHT22;293;53.888;11.464;2023-03-14T04:54:19;11.00;99.90
612;DHT22;293;53.888;11.464;2023-03-14T04:56:46;11.00;99.90
612;DHT22;293;53.888;11.464;2023-03-14T04:59:13;11.00;99.90
612;DHT22;293;53.888;11.464;2023-03-14T05:01:40;11.10;99.90
612;DHT22;293;53.888;11.464;2023-03-14T05:04:09;11.10;99.90
612;DHT22;293;53.888;11.464;2023-03-14T05:06:36;11.10;99.90
612;DHT22;293;53.888;11.464;2023-03-14T05:09:03;11.10;99.90
612;DHT22;293;53.888;11.464;2023-03-14T05:11:31;11.10;99.90
612;DHT22;293;53.888;11.464;2023-03-14T05:13:58;11.10;99.90
612;DHT22;293;53.888;11.464;2023-03-14T05:16:25;11.00;99.90
612;DHT22;293;53.888;11.464;2023-03-14T05:18:52;11.00;99.90
612;DHT22;293;53.888;11.464;2023-03-14T05:21:20;11.00;99.90
612;DHT22;293;53.888;11.464;2023-03-14T05:23:47;11.00;99.90
612;DHT22;293;53.888;11.464;2023-03-14T05:26:14;11.00;99.90
612;DHT22;293;53.888;11.464;2023-03-14T05:28:42;11.00;99.90
612;DHT22;293;53.888;11.464;2023-03-14T05:31:09;11.00;99.90
612;DHT22;293;53.888;11.464;2023-03-14T05:33:36;11.00;99.90
612;DHT22;293;53.888;11.464;2023-03-14T05:36:04;11.00;99.90
612;DHT22;293;53.888;11.464;2023-03-14T05:38:32;10.90;99.90
612;DHT22;293;53.888;11.464;2023-03-14T05:40:59;10.90;99.90
612;DHT22;293;53.888;11.464;2023-03-14T05:43:26;10.90;99.90
612;DHT22;293;53.888;11.464;2023-03-14T05:45:53;11.00;99.90
612;DHT22;293;53.888;11.464;2023-03-14T05:48:20;11.00;99.90
612;DHT22;293;53.888;11.464;2023-03-14T05:50:48;11.00;99.90
612;DHT22;293;53.888;11.464;2023-03-14T05:53:15;11.00;99.90
612;DHT22;293;53.888;11.464;2023-03-14T05:55:43;11.10;99.90
612;DHT22;293;53.888;11.464;2023-03-14T05:58:10;11.00;99.90
612;DHT22;293;53.888;11.464;2023-03-14T06:00:37;11.00;99.90
612;DHT22;293;53.888;11.464;2023-03-14T06:03:04;11.00;99.90
612;DHT22;293;53.888;11.464;2023-03-14T06:05:31;11.10;99.90
612;DHT22;293;53.888;11.464;2023-03-14T06:07:58;11.20;99.90
612;DHT22;293;53.888;11.464;2023-03-14T06:10:24;11.20;99.90
612;DHT22;293;53.888;11.464;2023-03-14T06:12:53;11.30;99.90
612;DHT22;293;53.888;11.464;2023-03-14T06:15:20;11.30;99.90
612;DHT22;293;53.888;11.464;2023-03-14T06:17:47;11.30;99.90
612;DHT22;293;53.888;11.464;2023-03-14T06:20:14;11.30;99.90
612;DHT22;293;53.888;11.464;2023-03-14T06:22:41;11.40;99.90
612;DHT22;293;53.888;11.464;2023-03-14T06:25:09;11.50;99.90
612;DHT22;293;53.888;11.464;2023-03-14T06:27:35;11.50;99.90
612;DHT22;293;53.888;11.464;2023-03-14T06:30:31;11.60;99.90
612;DHT22;293;53.888;11.464;2023-03-14T06:32:58;11.80;99.90
612;DHT22;293;53.888;11.464;2023-03-14T06:35:25;11.90;99.90
612;DHT22;293;53.888;11.464;2023-03-14T06:37:52;12.00;99.90
612;DHT22;293;53.888;11.464;2023-03-14T06:40:19;12.10;99.90
612;DHT22;293;53.888;11.464;2023-03-14T06:42:46;12.30;99.90
612;DHT22;293;53.888;11.464;2023-03-14T06:45:14;12.30;99.90
612;DHT22;293;53.888;11.464;2023-03-14T06:47:42;12.30;99.90
612;DHT22;293;53.888;11.464;2023-03-14T06:50:10;12.30;99.90
612;DHT22;293;53.888;11.464;2023-03-14T06:52:37;12.30;99.90
612;DHT22;293;53.888;11.464;2023-03-14T06:55:07;12.20;99.90
612;DHT22;293;53.888;11.464;2023-03-14T06:57:34;12.20;99.90
612;DHT22;293;53.888;11.464;2023-03-14T07:00:02;12.20;99.90
612;DHT22;293;53.888;11.464;2023-03-14T07:02:29;12.00;99.90
612;DHT22;293;53.888;11.464;2023-03-14T07:04:57;12.00;99.90
612;DHT22;293;53.888;11.464;2023-03-14T07:07:26;12.00;99.90
612;DHT22;293;53.888;11.464;2023-03-14T07:09:53;12.00;99.90
612;DHT22;293;53.888;11.464;2023-03-14T07:12:20;12.00;99.90
612;DHT22;293;53.888;11.464;2023-03-14T07:14:47;12.00;99.90
612;DHT22;293;53.888;11.464;2023-03-14T07:17:14;12.00;99.90
612;DHT22;293;53.888;11.464;2023-03-14T07:19:41;12.00;99.90
612;DHT22;293;53.888;11.464;2023-03-14T07:22:10;12.00;99.90
612;DHT22;293;53.888;11.464;2023-03-14T07:24:37;11.90;99.90
612;DHT22;293;53.888;11.464;2023-03-14T07:27:04;11.90;99.90
612;DHT22;293;53.888;11.464;2023-03-14T07:29:31;11.90;99.90
612;DHT22;293;53.888;11.464;2023-03-14T07:31:58;11.90;99.90
612;DHT22;293;53.888;11.464;2023-03-14T07:34:25;11.90;99.90
612;DHT22;293;53.888;11.464;2023-03-14T07:36:52;12.00;99.90
612;DHT22;293;53.888;11.464;2023-03-14T07:39:20;12.10;99.90
612;DHT22;293;53.888;11.464;2023-03-14T07:41:47;12.20;99.90
612;DHT22;293;53.888;11.464;2023-03-14T07:44:14;12.20;99.90
612;DHT22;293;53.888;11.464;2023-03-14T07:46:41;12.10;99.90
612;DHT22;293;53.888;11.464;2023-03-14T07:49:08;12.10;99.90
612;DHT22;293;53.888;11.464;2023-03-14T07:51:35;12.20;99.90
612;DHT22;293;53.888;11.464;2023-03-14T07:54:02;12.40;99.90
612;DHT22;293;53.888;11.464;2023-03-14T07:56:31;12.50;99.90
612;DHT22;293;53.888;11.464;2023-03-14T07:58:58;12.70;99.90
612;DHT22;293;53.888;11.464;2023-03-14T08:01:25;12.60;99.90
612;DHT22;293;53.888;11.464;2023-03-14T08:03:52;12.80;99.90
612;DHT22;293;53.888;11.464;2023-03-14T08:06:19;12.90;99.90
612;DHT22;293;53.888;11.464;2023-03-14T08:08:46;13.00;99.90
612;DHT22;293;53.888;11.464;2023-03-14T08:11:13;13.20;99.90
612;DHT22;293;53.888;11.464;2023-03-14T08:13:42;13.30;99.90
612;DHT22;293;53.888;11.464;2023-03-14T08:16:15;13.20;99.90
612;DHT22;293;53.888;11.464;2023-03-14T08:18:42;13.10;99.90
612;DHT22;293;53.888;11.464;2023-03-14T08:21:10;13.00;99.90
612;DHT22;293;53.888;11.464;2023-03-14T08:23:37;12.90;99.90
612;DHT22;293;53.888;11.464;2023-03-14T08:26:04;12.80;99.90
612;DHT22;293;53.888;11.464;2023-03-14T08:28:32;12.80;99.90
612;DHT22;293;53.888;11.464;2023-03-14T08:31:01;12.70;99.90
612;DHT22;293;53.888;11.464;2023-03-14T08:33:29;12.70;99.90
612;DHT22;293;53.888;11.464;2023-03-14T08:35:58;12.70;99.90
612;DHT22;293;53.888;11.464;2023-03-14T08:38:26;12.80;99.90
612;DHT22;293;53.888;11.464;2023-03-14T08:40:56;12.80;99.90
612;DHT22;293;53.888;11.464;2023-03-14T08:43:23;12.80;99.90
612;DHT22;293;53.888;11.464;2023-03-14T08:45:50;12.70;99.90
612;DHT22;293;53.888;11.464;2023-03-14T08:48:19;12.80;99.90
612;DHT22;293;53.888;11.464;2023-03-14T08:50:46;12.80;99.90
612;DHT22;293;53.888;11.464;2023-03-14T08:53:13;12.90;99.90
612;DHT22;293;53.888;11.464;2023-03-14T08:55:40;12.90;99.90
612;DHT22;293;53.888;11.464;2023-03-14T08:58:07;12.90;99.90
612;DHT22;293;53.888;11.464;2023-03-14T09:00:34;13.00;99.90
612;DHT22;293;53.888;11.464;2023-03-14T09:03:01;13.10;99.90
612;DHT22;293;53.888;11.464;2023-03-14T09:05:32;13.10;99.90
612;DHT22;293;53.888;11.464;2023-03-14T09:07:59;13.20;99.90
612;DHT22;293;53.888;11.464;2023-03-14T09:10:26;13.40;99.90
612;DHT22;293;53.888;11.464;2023-03-14T09:12:53;13.50;99.90
612;DHT22;293;53.888;11.464;2023-03-14T09:15:20;13.70;99.90
612;DHT22;293;53.888;11.464;2023-03-14T09:17:47;13.70;99.90
612;DHT22;293;53.888;11.464;2023-03-14T09:20:14;13.60;99.90
612;DHT22;293;53.888;11.464;2023-03-14T09:22:43;13.70;99.90
612;DHT22;293;53.888;11.464;2023-03-14T09:25:10;13.70;99.90
612;DHT22;293;53.888;11.464;2023-03-14T09:27:37;13.60;99.90
612;DHT22;293;53.888;11.464;2023-03-14T09:30:05;13.60;99.90
612;DHT22;293;53.888;11.464;2023-03-14T09:32:32;13.60;99.90
612;DHT22;293;53.888;11.464;2023-03-14T09:34:59;13.60;99.90
612;DHT22;293;53.888;11.464;2023-03-14T09:37:25;13.70;99.90
612;DHT22;293;53.888;11.464;2023-03-14T09:39:54;13.80;99.90
612;DHT22;293;53.888;11.464;2023-03-14T09:42:23;13.80;99.90
612;DHT22;293;53.888;11.464;2023-03-14T09:44:55;13.80;99.90
612;DHT22;293;53.888;11.464;2023-03-14T09:47:23;13.70;99.90
612;DHT22;293;53.888;11.464;2023-03-14T09:49:51;13.60;99.90
612;DHT22;293;53.888;11.464;2023-03-14T09:52:22;13.60;99.90
612;DHT22;293;53.888;11.464;2023-03-14T09:54:53;13.70;99.90
612;DHT22;293;53.888;11.464;2023-03-14T09:57:24;13.70;99.90
612;DHT22;293;53.888;11.464;2023-03-14T09:59:53;13.80;99.90
612;DHT22;293;53.888;11.464;2023-03-14T10:02:22;13.90;99.90
612;DHT22;293;53.888;11.464;2023-03-14T10:04:52;14.10;99.90
612;DHT22;293;53.888;11.464;2023-03-14T10:07:23;14.30;99.90
612;DHT22;293;53.888;11.464;2023-03-14T10:09:53;14.40;99.90
612;DHT22;293;53.888;11.464;2023-03-14T10:12:30;14.70;99.90
612;DHT22;293;53.888;11.464;2023-03-14T10:15:03;14.60;99.90
612;DHT22;293;53.888;11.464;2023-03-14T10:17:38;14.80;99.90
612;DHT22;293;53.888;11.464;2023-03-14T10:20:06;14.80;99.90
612;DHT22;293;53.888;11.464;2023-03-14T10:22:36;15.00;99.90
612;DHT22;293;53.888;11.464;2023-03-14T10:25:06;15.10;99.90
612;DHT22;293;53.888;11.464;2023-03-14T10:27:50;15.20;99.90
612;DHT22;293;53.888;11.464;2023-03-14T10:30:29;15.00;99.90
612;DHT22;293;53.888;11.464;2023-03-14T10:32:57;14.90;99.90
612;DHT22;293;53.888;11.464;2023-03-14T10:35:25;14.70;99.90
612;DHT22;293;53.888;11.464;2023-03-14T10:37:54;14.60;99.90
612;DHT22;293;53.888;11.464;2023-03-14T10:40:27;14.70;99.90
612;DHT22;293;53.888;11.464;2023-03-14T10:42:58;14.70;99.90
612;DHT22;293;53.888;11.464;2023-03-14T10:45:32;14.70;99.90
612;DHT22;293;53.888;11.464;2023-03-14T10:48:15;14.60;99.90
612;DHT22;293;53.888;11.464;2023-03-14T10:50:49;14.30;99.90
612;DHT22;293;53.888;11.464;2023-03-14T10:53:17;14.40;99.90
612;DHT22;293;53.888;11.464;2023-03-14T10:55:46;14.40;99.90
612;DHT22;293;53.888;11.464;2023-03-14T10:58:24;14.50;99.90
612;DHT22;293;53.888;11.464;2023-03-14T11:01:09;14.50;99.90
612;DHT22;293;53.888;11.464;2023-03-14T11:03:45;14.50;99.90
612;DHT22;293;53.888;11.464;2023-03-14T11:06:18;14.30;99.90
612;DHT22;293;53.888;11.464;2023-03-14T11:08:52;13.10;98.50
612;DHT22;293;53.888;11.464;2023-03-14T11:11:25;12.00;99.30
612;DHT22;293;53.888;11.464;2023-03-14T11:14:04;10.80;99.90
612;DHT22;293;53.888;11.464;2023-03-14T11:16:40;9.30;99.90
612;DHT22;293;53.888;11.464;2023-03-14T11:19:20;8.20;99.90
612;DHT22;293;53.888;11.464;2023-03-14T11:21:56;7.50;99.90
612;DHT22;293;53.888;11.464;2023-03-14T11:24:39;6.90;99.90
612;DHT22;293;53.888;11.464;2023-03-14T11:27:17;6.30;99.90
612;DHT22;293;53.888;11.464;2023-03-14T11:29:54;5.90;99.90
612;DHT22;293;53.888;11.464;2023-03-14T11:32:35;5.90;99.90
612;DHT22;293;53.888;11.464;2023-03-14T11:35:07;5.70;99.90
612;DHT22;293;53.888;11.464;2023-03-14T11:37:46;5.60;99.90
612;DHT22;293;53.888;11.464;2023-03-14T11:40:14;5.60;99.90
612;DHT22;293;53.888;11.464;2023-03-14T11:42:49;5.50;99.90
612;DHT22;293;53.888;11.464;2023-03-14T11:45:25;5.30;99.90
612;DHT22;293;53.888;11.464;2023-03-14T11:47:57;5.10;99.90
612;DHT22;293;53.888;11.464;2023-03-14T11:50:28;5.00;99.90
612;DHT22;293;53.888;11.464;2023-03-14T11:53:01;4.80;99.90
612;DHT22;293;53.888;11.464;2023-03-14T11:55:31;4.70;99.90
612;DHT22;293;53.888;11.464;2023-03-14T11:58:05;4.60;99.90
612;DHT22;293;53.888;11.464;2023-03-14T12:00:38;4.50;99.90
612;DHT22;293;53.888;11.464;2023-03-14T12:03:14;4.50;99.90
612;DHT22;293;53.888;11.464;2023-03-14T12:05:54;4.40;99.90
612;DHT22;293;53.888;11.464;2023-03-14T12:08:43;4.40;99.90
612;DHT22;293;53.888;11.464;2023-03-14T12:11:16;4.40;99.90
612;DHT22;293;53.888;11.464;2023-03-14T12:13:49;4.50;99.90
612;DHT22;293;53.888;11.464;2023-03-14T12:16:37;4.50;99.90
612;DHT22;293;53.888;11.464;2023-03-14T12:19:37;4.50;99.90
612;DHT22;293;53.888;11.464;2023-03-14T12:22:27;4.50;99.90
612;DHT22;293;53.888;11.464;2023-03-14T12:24:58;4.60;99.90
612;DHT22;293;53.888;11.464;2023-03-14T12:30:32;4.50;99.90
612;DHT22;293;53.888;11.464;2023-03-14T12:39:15;4.60;99.90
612;DHT22;293;53.888;11.464;2023-03-14T12:41:51;4.70;99.90
612;DHT22;293;53.888;11.464;2023-03-14T12:44:41;4.70;99.90
612;DHT22;293;53.888;11.464;2023-03-14T12:47:55;4.60;99.90
612;DHT22;293;53.888;11.464;2023-03-14T12:50:34;4.60;99.90
612;DHT22;293;53.888;11.464;2023-03-14T12:53:42;4.60;99.90
612;DHT22;293;53.888;11.464;2023-03-14T12:56:24;4.50;99.90
612;DHT22;293;53.888;11.464;2023-03-14T12:59:13;4.40;99.90
612;DHT22;293;53.888;11.464;2023-03-14T13:01:47;4.40;99.90
612;DHT22;293;53.888;11.464;2023-03-14T13:04:16;4.50;99.90
612;DHT22;293;53.888;11.464;2023-03-14T13:06:49;4.50;99.90
612;DHT22;293;53.888;11.464;2023-03-14T13:09:36;4.50;99.90
612;DHT22;293;53.888;11.464;2023-03-14T13:12:17;4.50;99.90
612;DHT22;293;53.888;11.464;2023-03-14T13:14:47;4.60;99.90
612;DHT22;293;53.888;11.464;2023-03-14T13:17:18;4.70;99.90
612;DHT22;293;53.888;11.464;2023-03-14T13:19:51;4.80;99.90
612;DHT22;293;53.888;11.464;2023-03-14T13:22:23;4.80;99.90
612;DHT22;293;53.888;11.464;2023-03-14T13:24:59;4.80;99.90
612;DHT22;293;53.888;11.464;2023-03-14T13:27:31;4.80;99.90
612;DHT22;293;53.888;11.464;2023-03-14T13:29:59;4.90;99.90
612;DHT22;293;53.888;11.464;2023-03-14T13:32:31;4.80;99.90
612;DHT22;293;53.888;11.464;2023-03-14T13:34:59;4.90;99.90
612;DHT22;293;53.888;11.464;2023-03-14T13:37:27;5.00;99.90
612;DHT22;293;53.888;11.464;2023-03-14T13:39:58;5.00;99.90
612;DHT22;293;53.888;11.464;2023-03-14T13:42:27;5.00;99.90
612;DHT22;293;53.888;11.464;2023-03-14T13:44:56;5.10;99.90
612;DHT22;293;53.888;11.464;2023-03-14T13:47:24;5.10;99.90
612;DHT22;293;53.888;11.464;2023-03-14T13:49:52;5.10;99.90
612;DHT22;293;53.888;11.464;2023-03-14T13:52:28;5.10;99.90
612;DHT22;293;53.888;11.464;2023-03-14T13:54:56;5.10;99.90
612;DHT22;293;53.888;11.464;2023-03-14T13:57:23;5.10;99.90
612;DHT22;293;53.888;11.464;2023-03-14T14:00:00;5.20;99.90
612;DHT22;293;53.888;11.464;2023-03-14T14:02:32;5.20;99.90
612;DHT22;293;53.888;11.464;2023-03-14T14:05:00;5.20;99.90
612;DHT22;293;53.888;11.464;2023-03-14T14:07:29;5.10;99.90
612;DHT22;293;53.888;11.464;2023-03-14T14:09:57;5.20;99.90
612;DHT22;293;53.888;11.464;2023-03-14T14:12:28;5.20;99.90
612;DHT22;293;53.888;11.464;2023-03-14T14:14:58;5.20;99.90
612;DHT22;293;53.888;11.464;2023-03-14T14:17:30;5.20;99.90
612;DHT22;293;53.888;11.464;2023-03-14T14:19:58;5.20;99.90
612;DHT22;293;53.888;11.464;2023-03-14T14:22:26;5.20;99.90
612;DHT22;293;53.888;11.464;2023-03-14T14:24:54;5.20;99.90
612;DHT22;293;53.888;11.464;2023-03-14T14:27:28;5.30;99.90
612;DHT22;293;53.888;11.464;2023-03-14T14:29:58;5.30;99.90
612;DHT22;293;53.888;11.464;2023-03-14T14:32:26;5.30;99.90
612;DHT22;293;53.888;11.464;2023-03-14T14:35:00;5.40;99.90
612;DHT22;293;53.888;11.464;2023-03-14T14:37:30;5.40;99.90
612;DHT22;293;53.888;11.464;2023-03-14T14:40:01;5.40;99.90
612;DHT22;293;53.888;11.464;2023-03-14T14:42:33;5.40;99.90
612;DHT22;293;53.888;11.464;2023-03-14T14:45:02;5.50;99.90
612;DHT22;293;53.888;11.464;2023-03-14T14:47:29;5.50;99.90
612;DHT22;293;53.888;11.464;2023-03-14T14:50:00;5.60;99.90
612;DHT22;293;53.888;11.464;2023-03-14T14:52:37;5.60;99.90
612;DHT22;293;53.888;11.464;2023-03-14T14:55:18;5.60;99.90
612;DHT22;293;53.888;11.464;2023-03-14T14:57:49;5.70;99.90
612;DHT22;293;53.888;11.464;2023-03-14T15:00:19;5.70;99.90
612;DHT22;293;53.888;11.464;2023-03-14T15:02:48;5.80;99.90
612;DHT22;293;53.888;11.464;2023-03-14T15:05:17;5.70;99.90
612;DHT22;293;53.888;11.464;2023-03-14T15:07:45;5.80;99.90
612;DHT22;293;53.888;11.464;2023-03-14T15:10:16;5.90;99.90
612;DHT22;293;53.888;11.464;2023-03-14T15:12:43;5.90;99.90
612;DHT22;293;53.888;11.464;2023-03-14T15:15:11;5.80;99.90
612;DHT22;293;53.888;11.464;2023-03-14T15:17:38;5.90;99.90
612;DHT22;293;53.888;11.464;2023-03-14T15:20:10;5.80;99.90
612;DHT22;293;53.888;11.464;2023-03-14T15:22:38;5.90;99.90
612;DHT22;293;53.888;11.464;2023-03-14T15:25:06;5.90;99.90
612;DHT22;293;53.888;11.464;2023-03-14T15:27:34;6.00;99.90
612;DHT22;293;53.888;11.464;2023-03-14T15:30:01;6.10;99.90
612;DHT22;293;53.888;11.464;2023-03-14T15:32:29;6.00;99.90
612;DHT22;293;53.888;11.464;2023-03-14T15:34:56;6.00;99.90
612;DHT22;293;53.888;11.464;2023-03-14T15:37:25;6.00;99.90
612;DHT22;293;53.888;11.464;2023-03-14T15:39:52;6.00;99.90
612;DHT22;293;53.888;11.464;2023-03-14T15:42:19;6.00;99.90
612;DHT22;293;53.888;11.464;2023-03-14T15:44:47;6.00;99.90
612;DHT22;293;53.888;11.464;2023-03-14T15:47:14;6.00;99.90
612;DHT22;293;53.888;11.464;2023-03-14T15:49:41;6.00;99.90
612;DHT22;293;53.888;11.464;2023-03-14T15:52:08;5.90;99.90
612;DHT22;293;53.888;11.464;2023-03-14T15:54:35;5.90;99.90
612;DHT22;293;53.888;11.464;2023-03-14T15:57:02;6.00;99.90
612;DHT22;293;53.888;11.464;2023-03-14T15:59:31;5.90;99.90
612;DHT22;293;53.888;11.464;2023-03-14T16:02:00;5.90;99.90
612;DHT22;293;53.888;11.464;2023-03-14T16:04:27;5.90;99.90
612;DHT22;293;53.888;11.464;2023-03-14T16:06:53;5.80;99.90
612;DHT22;293;53.888;11.464;2023-03-14T16:09:20;5.80;99.90
612;DHT22;293;53.888;11.464;2023-03-14T16:11:49;5.80;99.90
612;DHT22;293;53.888;11.464;2023-03-14T16:14:19;5.80;99.90
612;DHT22;293;53.888;11.464;2023-03-14T16:16:51;5.80;99.90
612;DHT22;293;53.888;11.464;2023-03-14T16:19:19;5.80;99.90
612;DHT22;293;53.888;11.464;2023-03-14T16:21:46;5.80;99.90
612;DHT22;293;53.888;11.464;2023-03-14T16:24:13;5.70;99.90
612;DHT22;293;53.888;11.464;2023-03-14T16:26:40;5.70;99.90
612;DHT22;293;53.888;11.464;2023-03-14T16:29:09;5.70;99.90
612;DHT22;293;53.888;11.464;2023-03-14T16:31:36;5.70;99.90
612;DHT22;293;53.888;11.464;2023-03-14T16:34:07;5.70;99.90
612;DHT22;293;53.888;11.464;2023-03-14T16:36:35;5.70;99.90
612;DHT22;293;53.888;11.464;2023-03-14T16:39:03;5.60;99.90
612;DHT22;293;53.888;11.464;2023-03-14T16:41:30;5.60;99.90
612;DHT22;293;53.888;11.464;2023-03-14T16:43:57;5.60;99.90
612;DHT22;293;53.888;11.464;2023-03-14T16:46:24;5.70;99.90
612;DHT22;293;53.888;11.464;2023-03-14T16:48:51;5.60;99.90
612;DHT22;293;53.888;11.464;2023-03-14T16:51:19;5.60;99.90
612;DHT22;293;53.888;11.464;2023-03-14T16:53:49;5.60;99.90